Aeroporto :
LOGIN :

Iscrizione | Disclaimer

   EN    FR    IT 

 










Sommario :    VFR   VFR Marginale   IFR   IFR Intensivo   IFR Molto Intensivo
Visibilità : 
Base nubi : 
>= 8 km
>= 3000ft
5 / 8 km
1000 / 3000 ft
1500m / 5 km
500 / 1000 ft
800 / 1500m
200 / 500 ft
< 800m
< 200 ft
Simboli :   Temporali  Nebbia  Neve Forte  Precipitazioni Forti  Vento > 20 kt
SIGMETs :   Varie  Temporali  Ghiacco  Turbolenza  Onda orograficha  Ceneri Vulcaniche






- Altitudine del aeroporto : 1906 ft
- Codice IATA : INN


LOWI - Innsbruck

ULTIMO METAR :
  • 021150Z 08005KT 050V130 9999 FEW040 SCT065 BKN110 23/15 Q1013 NOSIG

METARs OBSOLETI :
  • 021120Z VRB02KT 9999 FEW040 SCT065 BKN110 22/16 Q1014 NOSIG
  • 021050Z VRB01KT 9999 FEW040 SCT065 BKN110 22/16 Q1014 NOSIG
  • 021020Z VRB01KT 9999 FEW030 SCT065 BKN110 21/15 Q1014 NOSIG
  • 020950Z VRB02KT 9999 FEW030 SCT065 BKN120 21/15 Q1015 NOSIG
  • 020920Z VRB02KT 9999 FEW020 SCT065 BKN120 20/16 Q1015 NOSIG

TAF TAF LOWI
Valido dal 02 a 12 ore il 03 a 12 ore UTC


021115Z 0212/0312 09006KT 9999 SCT060 SCT100 TX25/0213Z TN15/0304Z
TEMPO 0212/0224 27015G30KT TSRA SCT020CB BKN030
TEMPO 0300/0306 27010KT SHRA BKN008 FEW020CB
TEMPO 0306/0312 27010KT SHRA



MetMap, La meteo Aeronautica in un colpo d'occhio ! - Copyright ORBIFLY Dicembre 2007 - Disclaimer

ORBIFLY MET'MAP TEAM :

Programmazione e sviluppo : Alexandra Zaïnal
Concezione : Baudouin d'Aumeries
Aiuto per la programmazione : Marc-Olivier Méhu
Supporto tecnico e logistico : Manuel Goepfert
Aiuto per la traduzione : Arnaldo La Scala

Contatto : metmap@orbifly.com




FONTI E CREDITI :

   NOAA